Time;durP1;ratioP1;P1;durP2;ratioP2;P2;SDS_P1;SDS_P2;PMS_P1;PMS_P2;Temp;Humidity;BMP_temperature;BMP_pressure;BME280_temperature;BME280_humidity;BME280_pressure;Samples;Min_cycle;Max_cycle;Signal;HPM_P1;HPM_P2
2023/01/08 00:02:24;;;;;;;20.80;18.23;;;10.80;99.90;;;;;;4933647;28;20043;-84
2023/01/08 00:04:50;;;;;;;20.85;17.67;;;10.80;99.90;;;;;;4933592;29;20047;-84
2023/01/08 00:07:16;;;;;;;22.20;17.23;;;10.80;99.90;;;;;;4926750;29;20385;-84
2023/01/08 00:09:42;;;;;;;18.88;17.08;;;10.80;99.90;;;;;;4901201;29;20493;-84
2023/01/08 00:12:08;;;;;;;18.42;16.52;;;10.80;99.90;;;;;;4917769;29;20354;-84
2023/01/08 00:14:34;;;;;;;19.17;17.30;;;10.80;99.90;;;;;;4921102;29;20036;-84
2023/01/08 00:17:01;;;;;;;27.48;17.80;;;10.70;99.90;;;;;;4937525;29;20405;-84
2023/01/08 00:19:28;;;;;;;18.42;16.48;;;10.80;99.90;;;;;;4936296;29;20044;-84
2023/01/08 00:21:54;;;;;;;19.02;17.13;;;10.70;99.90;;;;;;4921048;29;20024;-84
2023/01/08 00:24:20;;;;;;;19.23;17.40;;;10.80;99.90;;;;;;4937443;29;20036;-84
2023/01/08 00:26:46;;;;;;;23.23;18.02;;;10.80;99.90;;;;;;4936625;29;20035;-84
2023/01/08 00:29:13;;;;;;;24.33;17.40;;;10.80;99.90;;;;;;4904458;29;20056;-83
2023/01/08 00:31:39;;;;;;;31.73;18.33;;;10.70;99.90;;;;;;4936797;28;20032;-84
2023/01/08 00:34:05;;;;;;;17.35;15.60;;;10.70;99.90;;;;;;4936425;29;20039;-84
2023/01/08 00:36:31;;;;;;;21.77;15.18;;;10.70;99.90;;;;;;4936319;29;20031;-84
2023/01/08 00:38:58;;;;;;;25.23;13.80;;;10.60;99.90;;;;;;4936050;29;20038;-84
2023/01/08 00:41:24;;;;;;;17.08;14.93;;;10.60;99.90;;;;;;4920534;29;20055;-84
2023/01/08 00:43:50;;;;;;;20.60;16.02;;;10.70;99.90;;;;;;4937525;29;20063;-84
2023/01/08 00:46:16;;;;;;;22.00;15.02;;;10.80;99.90;;;;;;4937015;28;20393;-84
2023/01/08 00:48:42;;;;;;;20.38;16.90;;;10.70;99.90;;;;;;4920116;29;20493;-84
2023/01/08 00:51:08;;;;;;;25.75;16.60;;;10.70;99.90;;;;;;4937361;29;20034;-84
2023/01/08 00:53:34;;;;;;;21.52;16.75;;;10.80;99.90;;;;;;4936979;29;20039;-84
2023/01/08 00:56:01;;;;;;;20.33;16.48;;;10.70;99.90;;;;;;4937267;29;20465;-83
2023/01/08 00:58:28;;;;;;;25.40;16.75;;;10.70;99.90;;;;;;4920309;29;20386;-84
2023/01/08 01:00:54;;;;;;;23.20;18.00;;;10.70;99.90;;;;;;4919683;28;20028;-84
2023/01/08 01:03:20;;;;;;;27.50;15.88;;;10.70;99.90;;;;;;4937129;29;20039;-84
2023/01/08 01:05:46;;;;;;;22.80;16.35;;;10.70;99.90;;;;;;4936693;29;20463;-84
2023/01/08 01:08:12;;;;;;;24.17;17.08;;;10.70;99.90;;;;;;4919745;29;20039;-84
2023/01/08 01:10:39;;;;;;;23.48;17.25;;;10.80;99.90;;;;;;4888227;29;20040;-83
2023/01/08 01:13:05;;;;;;;19.15;16.90;;;10.80;99.90;;;;;;4920269;29;20364;-84
2023/01/08 01:15:31;;;;;;;23.45;17.58;;;10.80;99.90;;;;;;4919507;29;20031;-84
2023/01/08 01:17:57;;;;;;;22.20;17.80;;;10.80;99.90;;;;;;4904228;29;20024;-84
2023/01/08 01:20:23;;;;;;;22.75;17.98;;;10.90;99.90;;;;;;4936353;29;20023;-84
2023/01/08 01:22:49;;;;;;;24.60;20.35;;;10.90;99.90;;;;;;4919786;29;20039;-84
2023/01/08 01:25:15;;;;;;;23.30;21.05;;;10.90;99.90;;;;;;4934946;29;20044;-83
2023/01/08 01:27:42;;;;;;;26.20;22.55;;;10.90;99.90;;;;;;4935401;29;20031;-84
2023/01/08 01:30:08;;;;;;;26.42;24.00;;;10.90;99.90;;;;;;4936365;28;20047;-83
2023/01/08 01:32:34;;;;;;;27.55;24.92;;;10.90;99.90;;;;;;4919526;29;20397;-84
2023/01/08 01:35:01;;;;;;;24.90;22.35;;;10.90;99.90;;;;;;4936283;29;20039;-84
2023/01/08 01:37:27;;;;;;;20.83;16.92;;;10.90;99.90;;;;;;4935437;29;20027;-84
2023/01/08 01:39:55;;;;;;;17.73;16.13;;;10.80;99.90;;;;;;4935247;29;20024;-83
2023/01/08 01:42:39;;;;;;;18.63;16.77;;;10.80;99.90;;;;;;4919388;29;20055;-83
2023/01/08 01:45:17;;;;;;;17.85;16.23;;;10.80;99.90;;;;;;4935955;28;20028;-83
2023/01/08 01:47:44;;;;;;;20.02;18.17;;;10.80;99.90;;;;;;4935084;29;20028;-83
2023/01/08 01:50:13;;;;;;;17.83;16.17;;;10.80;99.90;;;;;;4919070;29;20039;-83
2023/01/08 01:52:57;;;;;;;16.50;15.23;;;10.80;99.90;;;;;;4919316;29;20042;-83
2023/01/08 01:55:23;;;;;;;15.80;14.13;;;10.80;99.90;;;;;;4936440;29;20031;-83
2023/01/08 01:58:02;;;;;;;15.15;13.60;;;10.80;99.90;;;;;;4919223;29;20596;-84
2023/01/08 02:00:28;;;;;;;16.17;14.38;;;10.80;99.90;;;;;;4934979;28;20059;-84
2023/01/08 02:02:55;;;;;;;14.70;13.25;;;10.70;99.90;;;;;;4919014;29;20032;-83
2023/01/08 02:05:21;;;;;;;15.07;13.73;;;10.70;99.90;;;;;;4935570;29;20036;-84
2023/01/08 02:07:51;;;;;;;14.95;13.73;;;10.70;99.90;;;;;;4908006;29;20557;-83
2023/01/08 02:10:23;;;;;;;13.98;12.77;;;10.70;99.90;;;;;;4903471;29;20048;-83
2023/01/08 02:13:03;;;;;;;15.35;14.32;;;10.70;99.90;;;;;;4919384;29;20031;-83
2023/01/08 02:15:44;;;;;;;13.70;12.63;;;10.70;99.90;;;;;;4903002;29;20036;-84
2023/01/08 02:18:15;;;;;;;14.20;13.30;;;10.70;99.90;;;;;;4918677;29;20051;-83
2023/01/08 02:20:55;;;;;;;14.23;12.95;;;10.70;99.90;;;;;;4925144;29;20042;-84
2023/01/08 02:23:52;;;;;;;14.63;13.63;;;10.70;99.90;;;;;;4934547;29;20031;-84
2023/01/08 02:26:31;;;;;;;15.48;14.10;;;10.70;99.90;;;;;;4918699;29;20028;-84
2023/01/08 02:29:08;;;;;;;15.77;14.45;;;10.70;99.90;;;;;;4934321;29;20039;-83
2023/01/08 02:31:35;;;;;;;15.40;14.23;;;10.70;99.90;;;;;;4917218;28;20035;-84
2023/01/08 02:34:01;;;;;;;15.75;14.27;;;10.70;99.90;;;;;;4934136;29;20382;-84
2023/01/08 02:36:29;;;;;;;15.25;13.82;;;10.70;99.90;;;;;;4934597;29;20032;-84
2023/01/08 02:39:14;;;;;;;15.45;14.35;;;10.70;99.90;;;;;;4934241;29;20032;-83
2023/01/08 02:41:56;;;;;;;15.75;14.32;;;10.70;99.90;;;;;;4933611;29;20043;-84
2023/01/08 02:44:58;;;;;;;15.18;14.27;;;10.70;99.90;;;;;;4917477;29;20035;-84
2023/01/08 02:47:34;;;;;;;15.60;14.60;;;10.70;99.90;;;;;;4929578;29;20036;-83
2023/01/08 02:50:23;;;;;;;16.42;15.10;;;10.60;99.90;;;;;;4901420;29;20047;-84
2023/01/08 02:53:00;;;;;;;17.55;16.45;;;10.60;99.90;;;;;;4908287;29;20493;-83
2023/01/08 02:55:26;;;;;;;17.30;16.08;;;10.60;99.90;;;;;;4917382;29;20374;-83
2023/01/08 02:57:52;;;;;;;17.17;15.98;;;10.50;99.90;;;;;;4917562;29;20665;-83
2023/01/08 03:00:19;;;;;;;16.00;14.93;;;10.50;99.90;;;;;;4916306;28;20377;-84
2023/01/08 03:02:45;;;;;;;17.05;15.43;;;10.50;99.90;;;;;;4897063;29;20036;-83
2023/01/08 03:05:29;;;;;;;16.17;14.98;;;10.50;99.90;;;;;;4910606;29;20027;-84
2023/01/08 03:07:55;;;;;;;15.57;14.18;;;10.40;99.90;;;;;;4895285;29;20055;-84
2023/01/08 03:10:21;;;;;;;15.98;14.90;;;10.40;99.90;;;;;;4907135;29;20405;-84
2023/01/08 03:12:53;;;;;;;15.23;14.15;;;10.40;99.90;;;;;;4903484;29;20032;-84
2023/01/08 03:15:26;;;;;;;16.15;14.90;;;10.40;99.90;;;;;;4880612;28;20040;-84
2023/01/08 03:17:54;;;;;;;15.45;14.40;;;10.40;99.90;;;;;;4900355;29;20020;-84
2023/01/08 03:20:22;;;;;;;16.52;15.18;;;10.40;99.90;;;;;;4915423;29;20028;-84
2023/01/08 03:22:57;;;;;;;15.63;14.73;;;10.40;99.90;;;;;;4915570;29;20019;-84
2023/01/08 03:25:24;;;;;;;15.73;14.68;;;10.40;99.90;;;;;;4923748;29;20035;-84
2023/01/08 03:28:00;;;;;;;15.57;14.27;;;10.40;99.90;;;;;;4915411;29;20023;-84
2023/01/08 03:30:26;;;;;;;15.23;14.13;;;10.30;99.90;;;;;;4914983;28;20049;-84
2023/01/08 03:32:53;;;;;;;15.73;14.57;;;10.30;99.90;;;;;;4915106;29;20472;-84
2023/01/08 03:35:20;;;;;;;15.43;14.35;;;10.30;99.90;;;;;;4914921;29;20648;-84
2023/01/08 03:37:50;;;;;;;15.63;14.40;;;10.30;99.90;;;;;;4923644;29;20441;-83
2023/01/08 03:40:22;;;;;;;15.32;14.32;;;10.30;99.90;;;;;;4861321;29;1179025;-84
2023/01/08 03:42:48;;;;;;;16.05;14.80;;;10.30;99.90;;;;;;4918130;29;20036;-84
2023/01/08 03:45:14;;;;;;;14.93;14.00;;;10.30;99.90;;;;;;4901485;28;20032;-83
2023/01/08 03:47:41;;;;;;;15.52;14.52;;;10.30;99.90;;;;;;4918657;29;20428;-83
2023/01/08 03:50:13;;;;;;;15.27;14.27;;;10.40;99.90;;;;;;4905835;29;20044;-83
2023/01/08 03:52:39;;;;;;;16.75;15.43;;;10.30;99.90;;;;;;4906465;29;20027;-83
2023/01/08 03:55:05;;;;;;;15.13;14.18;;;10.30;99.90;;;;;;4920899;29;20043;-83
2023/01/08 03:57:31;;;;;;;15.75;14.70;;;10.30;99.90;;;;;;4938341;29;20039;-83
2023/01/08 03:59:57;;;;;;;15.93;14.93;;;10.20;99.90;;;;;;4921108;29;20039;-83
2023/01/08 04:02:23;;;;;;;16.30;15.18;;;10.30;99.90;;;;;;4920706;28;20043;-84
2023/01/08 04:04:49;;;;;;;15.98;14.95;;;10.20;99.90;;;;;;4921100;29;20409;-83
2023/01/08 04:07:16;;;;;;;16.02;15.00;;;10.20;99.90;;;;;;4921256;29;20027;-83
2023/01/08 04:09:42;;;;;;;15.93;14.98;;;10.20;99.90;;;;;;4921085;29;20047;-84
2023/01/08 04:12:08;;;;;;;16.48;15.27;;;10.10;99.90;;;;;;4938001;29;20035;-84
2023/01/08 04:14:34;;;;;;;15.18;13.98;;;10.10;99.90;;;;;;4920544;29;20505;-84
2023/01/08 04:17:00;;;;;;;16.52;15.40;;;10.10;99.90;;;;;;4937470;29;20040;-83
2023/01/08 04:19:26;;;;;;;15.95;14.90;;;10.10;99.90;;;;;;4905273;29;20044;-84
2023/01/08 04:21:52;;;;;;;15.23;14.18;;;10.10;99.90;;;;;;4937723;29;20394;-84
2023/01/08 04:24:18;;;;;;;16.85;15.75;;;10.10;99.90;;;;;;4937980;29;20036;-84
2023/01/08 04:26:45;;;;;;;15.93;14.85;;;10.10;99.90;;;;;;4920839;29;20036;-84
2023/01/08 04:29:12;;;;;;;15.23;14.05;;;10.10;99.90;;;;;;4936205;29;20052;-84
2023/01/08 04:31:38;;;;;;;13.95;13.05;;;10.10;99.90;;;;;;4936048;28;20043;-84
2023/01/08 04:34:04;;;;;;;15.00;13.75;;;10.00;99.90;;;;;;4936553;29;20036;-84
2023/01/08 04:36:30;;;;;;;15.13;13.95;;;10.00;99.90;;;;;;4936436;29;20035;-83
2023/01/08 04:38:56;;;;;;;15.57;14.30;;;10.00;99.90;;;;;;4920099;29;20047;-84
2023/01/08 04:41:22;;;;;;;15.20;13.65;;;10.00;99.90;;;;;;4937657;29;20052;-84
2023/01/08 04:43:48;;;;;;;15.38;13.77;;;10.00;99.90;;;;;;4920093;29;20044;-83
2023/01/08 04:46:14;;;;;;;14.93;13.50;;;9.90;99.90;;;;;;4920020;28;20035;-84
2023/01/08 04:48:40;;;;;;;16.20;14.35;;;9.90;99.90;;;;;;4937433;29;20035;-84
2023/01/08 04:51:07;;;;;;;14.23;13.07;;;10.00;99.90;;;;;;4936180;29;20040;-84
2023/01/08 04:53:34;;;;;;;15.20;13.43;;;9.90;99.90;;;;;;4936301;29;20461;-83
2023/01/08 04:56:08;;;;;;;16.75;13.80;;;9.90;99.90;;;;;;4936180;29;20043;-84
2023/01/08 04:58:34;;;;;;;14.48;13.15;;;10.00;99.90;;;;;;4919464;29;20512;-84
2023/01/08 05:01:00;;;;;;;15.20;13.90;;;10.00;99.90;;;;;;4934730;28;20043;-84
2023/01/08 05:03:26;;;;;;;15.88;14.23;;;10.10;99.90;;;;;;4936020;29;20028;-84
2023/01/08 05:05:52;;;;;;;16.13;14.20;;;10.00;99.90;;;;;;4937198;29;20144;-84
2023/01/08 05:08:18;;;;;;;16.17;14.88;;;10.00;99.90;;;;;;4920908;29;20032;-84
2023/01/08 05:10:44;;;;;;;17.35;15.90;;;9.90;99.90;;;;;;4937028;29;20401;-84
2023/01/08 05:13:10;;;;;;;15.63;14.02;;;9.90;99.90;;;;;;4919533;29;20040;-84
2023/01/08 05:15:36;;;;;;;15.50;14.23;;;9.90;99.90;;;;;;4936525;29;20153;-84
2023/01/08 05:18:04;;;;;;;14.45;13.25;;;9.90;99.90;;;;;;4937018;29;20039;-84
2023/01/08 05:20:31;;;;;;;14.05;13.15;;;9.90;99.90;;;;;;4924685;29;20027;-84
2023/01/08 05:22:57;;;;;;;14.18;12.80;;;9.80;99.90;;;;;;4935608;29;20040;-83
2023/01/08 05:25:23;;;;;;;14.15;13.10;;;9.80;99.90;;;;;;4936820;29;20413;-83
2023/01/08 05:27:49;;;;;;;14.82;13.52;;;9.90;99.90;;;;;;4919386;29;20035;-83
2023/01/08 05:30:16;;;;;;;27.90;14.73;;;9.90;99.90;;;;;;4936008;28;20044;-84
2023/01/08 05:32:42;;;;;;;14.70;13.52;;;9.80;99.90;;;;;;4935384;29;20023;-83
2023/01/08 05:35:08;;;;;;;14.95;13.85;;;9.80;99.90;;;;;;4936574;29;20043;-83
2023/01/08 05:37:34;;;;;;;15.77;14.55;;;9.70;99.90;;;;;;4918774;29;20036;-83
2023/01/08 05:40:01;;;;;;;17.02;15.35;;;9.70;99.90;;;;;;4903322;29;20491;-83
2023/01/08 05:42:27;;;;;;;16.50;15.32;;;9.60;99.90;;;;;;4935857;29;20052;-84
2023/01/08 05:44:53;;;;;;;16.50;15.02;;;9.70;99.90;;;;;;4919488;29;20042;-83
2023/01/08 05:47:19;;;;;;;20.55;15.48;;;9.70;99.90;;;;;;4934649;28;20032;-83
2023/01/08 05:49:45;;;;;;;16.48;14.85;;;9.70;99.90;;;;;;4919168;29;20063;-83
2023/01/08 05:52:11;;;;;;;17.00;13.77;;;9.70;99.90;;;;;;4936249;29;20035;-83
2023/01/08 05:54:37;;;;;;;17.33;15.60;;;9.70;99.90;;;;;;4919226;29;20034;-84
2023/01/08 05:57:03;;;;;;;17.67;14.00;;;9.70;99.90;;;;;;4935724;29;20032;-84
2023/01/08 05:59:29;;;;;;;17.63;14.80;;;9.60;99.90;;;;;;4936187;29;20038;-83
2023/01/08 06:01:55;;;;;;;17.75;14.90;;;9.70;99.90;;;;;;4934305;28;20032;-84
2023/01/08 06:04:21;;;;;;;15.65;14.15;;;9.70;99.90;;;;;;4918982;29;20047;-83
2023/01/08 06:06:47;;;;;;;20.40;13.73;;;9.70;99.90;;;;;;4916108;29;20035;-84
2023/01/08 06:09:14;;;;;;;22.73;14.68;;;9.60;99.90;;;;;;4934318;29;20040;-83
2023/01/08 06:11:40;;;;;;;19.23;13.98;;;9.60;99.90;;;;;;4902201;29;20177;-83
2023/01/08 06:14:06;;;;;;;16.85;13.25;;;9.70;99.90;;;;;;4919131;29;20032;-83
2023/01/08 06:16:32;;;;;;;15.52;13.18;;;9.70;99.90;;;;;;4935319;29;20035;-83
2023/01/08 06:18:58;;;;;;;16.17;13.82;;;9.60;99.90;;;;;;4935781;29;20040;-83
2023/01/08 06:21:24;;;;;;;17.08;14.13;;;9.50;99.90;;;;;;4930803;29;20035;-84
2023/01/08 06:23:50;;;;;;;58.83;16.75;;;9.50;99.90;;;;;;4935771;29;20397;-83
2023/01/08 06:26:16;;;;;;;28.63;15.73;;;9.60;99.90;;;;;;4917772;29;20036;-84
2023/01/08 06:28:42;;;;;;;17.33;13.55;;;9.60;99.90;;;;;;4935808;29;20366;-83
2023/01/08 06:31:08;;;;;;;26.10;14.05;;;9.60;99.90;;;;;;4933912;28;20055;-83
2023/01/08 06:33:34;;;;;;;21.40;14.55;;;9.70;99.90;;;;;;4934407;29;20461;-84
2023/01/08 06:36:01;;;;;;;19.67;14.13;;;9.70;99.90;;;;;;4935632;29;20039;-83
2023/01/08 06:38:31;;;;;;;16.73;13.45;;;9.70;99.90;;;;;;4918543;29;20048;-83
2023/01/08 06:40:57;;;;;;;16.10;13.90;;;9.70;99.90;;;;;;4934915;29;20044;-83
2023/01/08 06:43:23;;;;;;;19.88;14.98;;;9.70;99.90;;;;;;4934320;29;20040;-83
2023/01/08 06:45:53;;;;;;;16.38;13.38;;;9.70;99.90;;;;;;4933737;28;20047;-84
2023/01/08 06:48:19;;;;;;;516.38;50.55;;;9.50;99.90;;;;;;4918393;29;20035;-83
2023/01/08 06:50:45;;;;;;;22.08;18.13;;;9.60;99.90;;;;;;4934090;29;20046;-83
2023/01/08 06:53:11;;;;;;;16.45;14.38;;;9.60;99.90;;;;;;4934183;29;20043;-83
2023/01/08 06:55:38;;;;;;;17.67;14.25;;;9.60;99.90;;;;;;4935030;29;20032;-83
2023/01/08 06:58:04;;;;;;;17.00;14.90;;;9.50;99.90;;;;;;4935388;29;20028;-83
2023/01/08 07:00:30;;;;;;;18.02;14.32;;;9.60;99.90;;;;;;4934542;28;20446;-83
2023/01/08 07:02:56;;;;;;;17.95;13.95;;;9.60;99.90;;;;;;4902031;29;20051;-83
2023/01/08 07:05:22;;;;;;;15.65;14.15;;;9.60;99.90;;;;;;4918113;29;20047;-83
2023/01/08 07:07:48;;;;;;;19.88;14.43;;;9.70;99.90;;;;;;4934958;29;20038;-83
2023/01/08 07:10:14;;;;;;;24.27;14.40;;;9.70;99.90;;;;;;4917884;29;20043;-83
2023/01/08 07:12:41;;;;;;;19.85;14.48;;;9.70;99.90;;;;;;4918432;29;20027;-83
2023/01/08 07:15:07;;;;;;;24.00;13.63;;;9.70;99.90;;;;;;4917137;29;20481;-83
2023/01/08 07:17:33;;;;;;;19.70;14.05;;;9.60;99.90;;;;;;4902536;29;20425;-83
2023/01/08 07:19:59;;;;;;;19.35;14.77;;;9.60;99.90;;;;;;4935051;29;20036;-83
2023/01/08 07:22:26;;;;;;;22.27;15.30;;;9.70;99.90;;;;;;4935464;29;20039;-83
2023/01/08 07:24:52;;;;;;;17.52;15.93;;;9.70;99.90;;;;;;4921442;29;20055;-83
2023/01/08 07:27:18;;;;;;;26.63;15.48;;;9.80;99.90;;;;;;4921758;29;20035;-83
2023/01/08 07:29:45;;;;;;;16.52;14.98;;;9.80;99.90;;;;;;4921673;29;20100;-83
2023/01/08 07:32:11;;;;;;;19.10;15.70;;;9.70;99.90;;;;;;4937298;28;20508;-83
2023/01/08 07:34:37;;;;;;;18.88;15.38;;;9.60;99.90;;;;;;4938830;29;20031;-83
2023/01/08 07:37:03;;;;;;;21.25;16.13;;;9.60;99.90;;;;;;4937099;29;20060;-84
2023/01/08 07:39:30;;;;;;;17.65;14.95;;;9.60;99.90;;;;;;4938573;29;20097;-83
2023/01/08 07:41:56;;;;;;;557.67;41.25;;;9.60;99.90;;;;;;4921119;29;20046;-83
2023/01/08 07:44:22;;;;;;;20.77;14.25;;;9.70;99.90;;;;;;4921556;29;20458;-83
2023/01/08 07:46:48;;;;;;;18.63;13.80;;;9.70;99.90;;;;;;4920973;29;20039;-83
2023/01/08 07:49:15;;;;;;;16.63;14.50;;;9.70;99.90;;;;;;4921610;29;20382;-83
2023/01/08 07:51:41;;;;;;;18.85;13.80;;;9.60;99.90;;;;;;4938500;29;20366;-83
2023/01/08 07:54:07;;;;;;;15.15;13.65;;;9.60;99.90;;;;;;4938167;29;20035;-83
2023/01/08 07:56:33;;;;;;;16.10;14.30;;;9.60;99.90;;;;;;4938335;29;20047;-83
2023/01/08 07:58:59;;;;;;;28.58;13.98;;;9.40;99.90;;;;;;4937143;29;20035;-84
2023/01/08 08:01:25;;;;;;;23.80;14.45;;;9.50;99.90;;;;;;4920214;28;20036;-84
2023/01/08 08:03:51;;;;;;;15.48;13.98;;;9.50;99.90;;;;;;4936982;29;20050;-83
2023/01/08 08:06:17;;;;;;;25.48;13.05;;;9.50;99.90;;;;;;4904552;29;20039;-83
2023/01/08 08:08:44;;;;;;;15.75;13.95;;;9.60;99.90;;;;;;4921336;29;20035;-83
2023/01/08 08:11:10;;;;;;;20.42;13.60;;;9.60;99.90;;;;;;4938025;29;20047;-83
2023/01/08 08:13:36;;;;;;;17.33;15.57;;;9.60;99.90;;;;;;4921127;29;20035;-84
2023/01/08 08:16:02;;;;;;;20.88;14.68;;;9.60;99.90;;;;;;4904406;29;20390;-84
2023/01/08 08:18:29;;;;;;;19.25;16.83;;;9.60;99.90;;;;;;4921033;29;20032;-83
2023/01/08 08:20:55;;;;;;;18.45;16.73;;;9.60;99.90;;;;;;4928619;29;20043;-84
2023/01/08 08:23:21;;;;;;;21.30;15.95;;;9.70;99.90;;;;;;4936876;29;20366;-83
2023/01/08 08:25:47;;;;;;;18.38;16.63;;;9.70;99.90;;;;;;4936519;29;20032;-83
2023/01/08 08:28:13;;;;;;;16.95;15.40;;;9.80;99.90;;;;;;4920649;29;20051;-83
2023/01/08 08:30:39;;;;;;;15.40;14.00;;;9.90;99.90;;;;;;4936007;28;20054;-83
2023/01/08 08:33:06;;;;;;;14.65;13.55;;;9.80;99.90;;;;;;4920610;29;20043;-84
2023/01/08 08:35:32;;;;;;;14.32;12.48;;;9.80;99.90;;;;;;4920301;29;20036;-83
2023/01/08 08:37:58;;;;;;;14.65;13.23;;;9.80;99.90;;;;;;4936479;29;20042;-83
2023/01/08 08:40:25;;;;;;;15.30;14.05;;;9.80;99.90;;;;;;4920379;28;20098;-83
2023/01/08 08:43:09;;;;;;;15.60;14.13;;;9.80;99.90;;;;;;4920630;29;20032;-83
2023/01/08 08:45:35;;;;;;;18.05;16.40;;;9.80;99.90;;;;;;4919538;29;20035;-83
2023/01/08 08:48:03;;;;;;;20.50;15.30;;;9.90;99.90;;;;;;4904603;29;20043;-84
2023/01/08 08:50:30;;;;;;;18.42;14.60;;;9.90;99.90;;;;;;4919675;29;20059;-83
2023/01/08 08:53:02;;;;;;;18.58;16.90;;;9.90;99.90;;;;;;4936065;29;20469;-83
2023/01/08 08:55:28;;;;;;;16.67;15.00;;;9.90;99.90;;;;;;4920305;29;20031;-83
2023/01/08 08:58:01;;;;;;;16.73;15.30;;;9.90;99.90;;;;;;4936042;29;20035;-84
2023/01/08 09:00:28;;;;;;;16.67;15.48;;;9.90;99.90;;;;;;4935517;28;20032;-83
2023/01/08 09:02:54;;;;;;;17.58;15.98;;;9.90;99.90;;;;;;4937088;29;20050;-84
2023/01/08 09:05:20;;;;;;;16.52;15.20;;;9.90;99.90;;;;;;4935683;29;20034;-83
2023/01/08 09:07:46;;;;;;;16.95;15.40;;;9.90;99.90;;;;;;4936906;29;20042;-83
2023/01/08 09:10:12;;;;;;;16.75;15.27;;;9.80;99.90;;;;;;4919870;29;20105;-82
2023/01/08 09:12:38;;;;;;;16.38;15.07;;;9.90;99.90;;;;;;4920081;29;20027;-83
2023/01/08 09:15:04;;;;;;;17.33;15.63;;;9.90;99.90;;;;;;4936473;29;20473;-83
2023/01/08 09:17:31;;;;;;;16.45;15.07;;;9.90;99.90;;;;;;4904096;29;20028;-83
2023/01/08 09:19:57;;;;;;;18.40;16.27;;;10.00;99.90;;;;;;4920082;29;20019;-83
2023/01/08 09:22:23;;;;;;;18.17;16.38;;;10.10;99.90;;;;;;4919753;29;20039;-83
2023/01/08 09:24:49;;;;;;;19.00;17.33;;;10.10;99.90;;;;;;4919682;29;20035;-83
2023/01/08 09:27:15;;;;;;;17.63;16.20;;;10.10;99.90;;;;;;4935577;29;20208;-83
2023/01/08 09:29:41;;;;;;;18.73;16.80;;;10.20;99.90;;;;;;4935458;29;20038;-83
2023/01/08 09:32:07;;;;;;;17.67;16.20;;;10.20;99.90;;;;;;4935028;28;20058;-83
2023/01/08 09:34:35;;;;;;;18.63;16.67;;;10.20;99.90;;;;;;4934955;29;20028;-84
2023/01/08 09:37:01;;;;;;;17.70;16.08;;;10.20;99.90;;;;;;4936542;29;20039;-83
2023/01/08 09:39:27;;;;;;;17.67;16.38;;;10.20;99.90;;;;;;4919290;29;20055;-83
2023/01/08 09:41:53;;;;;;;17.95;16.15;;;10.20;99.90;;;;;;4919187;29;20070;-83
2023/01/08 09:44:21;;;;;;;17.70;16.40;;;10.20;99.90;;;;;;4903333;29;20040;-83
2023/01/08 09:46:47;;;;;;;18.13;15.45;;;10.20;99.90;;;;;;4918402;28;20055;-83
2023/01/08 09:49:27;;;;;;;19.77;16.05;;;10.30;99.90;;;;;;4919188;29;20027;-83
2023/01/08 09:51:53;;;;;;;18.00;16.67;;;10.30;99.90;;;;;;4919320;29;20477;-83
2023/01/08 09:54:19;;;;;;;19.45;17.45;;;10.30;99.90;;;;;;4919055;29;20040;-83
2023/01/08 09:56:46;;;;;;;20.95;18.90;;;10.40;99.90;;;;;;4919278;29;20043;-83
2023/01/08 09:59:14;;;;;;;20.33;18.27;;;10.40;99.90;;;;;;4935019;29;20389;-83
2023/01/08 10:01:40;;;;;;;21.70;19.67;;;10.50;99.90;;;;;;4935600;28;20047;-83
2023/01/08 10:04:12;;;;;;;63.25;39.45;;;10.50;99.90;;;;;;4918688;29;20475;-84
2023/01/08 10:06:39;;;;;;;48.78;34.85;;;10.50;99.90;;;;;;4935972;29;20035;-83
2023/01/08 10:09:05;;;;;;;38.05;30.52;;;10.50;99.90;;;;;;4919003;29;20047;-83
2023/01/08 10:11:40;;;;;;;21.90;17.98;;;10.50;99.90;;;;;;4903148;29;20046;-83
2023/01/08 10:14:07;;;;;;;21.88;18.88;;;10.50;99.90;;;;;;4919165;29;20023;-83
2023/01/08 10:16:35;;;;;;;19.92;18.02;;;10.50;99.90;;;;;;4902692;29;20043;-83
2023/01/08 10:19:02;;;;;;;20.52;18.60;;;10.50;99.90;;;;;;4903131;29;20023;-83
2023/01/08 10:21:31;;;;;;;19.08;17.52;;;10.50;99.90;;;;;;4935619;29;20050;-83
2023/01/08 10:23:58;;;;;;;18.77;16.90;;;10.60;99.90;;;;;;4934515;29;20032;-83
2023/01/08 10:26:37;;;;;;;18.10;16.85;;;10.60;99.90;;;;;;4918053;29;20035;-83
2023/01/08 10:29:13;;;;;;;20.63;18.77;;;10.60;99.90;;;;;;4934464;29;20023;-83
2023/01/08 10:31:55;;;;;;;20.67;18.65;;;10.70;99.90;;;;;;4934625;28;20050;-83
2023/01/08 10:34:43;;;;;;;22.13;19.63;;;10.70;99.90;;;;;;4918063;29;20050;-83
2023/01/08 10:37:39;;;;;;;23.02;20.60;;;10.70;99.90;;;;;;4918529;29;20024;-83
2023/01/08 10:40:25;;;;;;;30.70;26.30;;;10.70;99.90;;;;;;4927501;29;20039;-83
2023/01/08 10:42:51;;;;;;;23.30;21.10;;;10.70;99.90;;;;;;4935243;29;20532;-83
2023/01/08 10:45:23;;;;;;;22.00;19.98;;;10.70;99.90;;;;;;4934954;28;20028;-83
2023/01/08 10:47:49;;;;;;;;;;;10.70;99.90;;;;;;4949633;29;20036;-83
2023/01/08 10:50:21;;;;;;;20.58;18.58;;;10.80;99.90;;;;;;4950039;29;19918;-83
2023/01/08 10:53:21;;;;;;;19.73;18.13;;;10.90;99.90;;;;;;4949794;29;20031;-83
2023/01/08 10:55:47;;;;;;;19.15;17.38;;;10.90;99.90;;;;;;4879778;29;20272;-84
2023/01/08 10:58:14;;;;;;;22.27;20.10;;;10.90;99.90;;;;;;4878815;29;20044;-83
2023/01/08 11:00:40;;;;;;;19.30;17.40;;;11.00;99.90;;;;;;4878891;29;20498;-83
2023/01/08 11:03:07;;;;;;;18.52;16.63;;;11.00;99.90;;;;;;4879644;29;20043;-84
2023/01/08 11:05:38;;;;;;;21.33;17.80;;;11.10;99.90;;;;;;4863739;29;20145;-83
2023/01/08 11:08:13;;;;;;;21.40;18.83;;;11.10;99.90;;;;;;4864369;29;20478;-83
2023/01/08 11:10:39;;;;;;;19.85;17.45;;;11.20;99.90;;;;;;4876516;29;20048;-83
2023/01/08 11:13:06;;;;;;;21.95;17.40;;;11.20;99.90;;;;;;4861066;29;20606;-82
2023/01/08 11:15:35;;;;;;;21.50;19.45;;;11.20;99.90;;;;;;4875328;29;20111;-83
2023/01/08 11:18:19;;;;;;;26.38;21.40;;;11.20;99.90;;;;;;4845576;29;20074;-83
2023/01/08 11:20:46;;;;;;;21.75;18.13;;;11.20;99.90;;;;;;4879379;29;20048;-83
2023/01/08 11:23:19;;;;;;;25.92;21.92;;;11.20;99.90;;;;;;4863678;29;20056;-83
2023/01/08 11:25:54;;;;;;;31.45;24.88;;;11.30;99.90;;;;;;4879305;29;20045;-83
2023/01/08 11:28:25;;;;;;;20.48;18.27;;;11.20;99.90;;;;;;4878791;29;20048;-83
2023/01/08 11:30:56;;;;;;;27.58;20.77;;;11.20;99.90;;;;;;4878922;29;20411;-82
2023/01/08 11:33:24;;;;;;;19.38;16.67;;;11.20;99.90;;;;;;4912412;29;20048;-83
2023/01/08 11:35:57;;;;;;;18.40;16.58;;;11.20;99.90;;;;;;4933707;29;20028;-83
2023/01/08 11:38:23;;;;;;;19.92;17.25;;;11.20;99.90;;;;;;4933681;29;20032;-83
2023/01/08 11:41:15;;;;;;;17.85;16.33;;;11.20;99.90;;;;;;4949785;28;20051;-83
2023/01/08 11:44:13;;;;;;;21.00;18.83;;;11.30;99.90;;;;;;4935134;29;20035;-81
2023/01/08 11:46:54;;;;;;;22.02;18.95;;;11.30;99.90;;;;;;4940788;28;20040;-83
2023/01/08 11:49:32;;;;;;;22.27;19.73;;;11.30;99.90;;;;;;4932051;29;20020;-83
2023/01/08 11:52:01;;;;;;;20.15;18.27;;;11.30;99.90;;;;;;4948725;29;20051;-83
2023/01/08 11:54:48;;;;;;;22.08;16.75;;;11.30;99.90;;;;;;4934735;29;20382;-85
2023/01/08 11:57:39;;;;;;;17.67;16.08;;;11.20;99.90;;;;;;4932186;29;20478;-83
2023/01/08 12:00:26;;;;;;;17.27;15.68;;;11.20;99.90;;;;;;4934150;28;20501;-82
2023/01/08 12:03:01;;;;;;;17.33;15.40;;;11.20;99.90;;;;;;4972152;28;20042;-83
2023/01/08 12:06:17;;;;;;;17.80;16.10;;;11.20;99.90;;;;;;4957287;29;20022;-82
2023/01/08 12:09:07;;;;;;;20.00;18.00;;;11.20;99.90;;;;;;4877061;29;20041;-83
2023/01/08 12:11:47;;;;;;;19.58;18.38;;;11.20;99.90;;;;;;4885155;29;20098;-82
2023/01/08 12:14:28;;;;;;;25.88;23.92;;;11.10;99.90;;;;;;4878829;29;20045;-82
2023/01/08 12:17:06;;;;;;;21.65;20.05;;;11.10;99.90;;;;;;4872355;29;20052;-83
2023/01/08 12:19:42;;;;;;;21.65;20.20;;;11.10;99.90;;;;;;4879838;29;20479;-83
2023/01/08 12:22:31;;;;;;;15.45;14.45;;;11.00;99.90;;;;;;4907621;29;20033;-85
2023/01/08 12:25:08;;;;;;;16.98;15.77;;;11.00;99.90;;;;;;4897680;29;20053;-84
2023/01/08 12:27:59;;;;;;;17.23;15.80;;;11.00;99.90;;;;;;4917681;29;20045;-83
2023/01/08 12:30:37;;;;;;;17.73;16.38;;;11.00;99.90;;;;;;4919081;29;20045;-83
2023/01/08 12:33:08;;;;;;;16.15;15.07;;;11.10;99.90;;;;;;4901389;29;20055;-83
2023/01/08 12:35:49;;;;;;;16.50;15.43;;;11.00;99.90;;;;;;4897739;29;20039;-83
2023/01/08 12:38:23;;;;;;;18.20;17.20;;;11.00;99.90;;;;;;4881757;29;20048;-83
2023/01/08 12:41:25;;;;;;;67.40;36.35;;;11.10;99.90;;;;;;4922035;28;20044;-83
2023/01/08 12:44:02;;;;;;;42.08;28.55;;;11.10;99.90;;;;;;4859705;29;20049;-83